sensor_id;sensor_type;location;lat;lon;timestamp;temperature;humidity
7461;DHT22;6757;52.258;12.840;2023-02-01T00:02:21;4.60;99.90
7461;DHT22;6757;52.258;12.840;2023-02-01T00:04:48;4.60;99.90
7461;DHT22;6757;52.258;12.840;2023-02-01T00:07:15;4.10;99.90
7461;DHT22;6757;52.258;12.840;2023-02-01T00:09:43;4.60;99.90
7461;DHT22;6757;52.258;12.840;2023-02-01T00:12:14;4.60;99.90
7461;DHT22;6757;52.258;12.840;2023-02-01T00:14:41;4.50;99.90
7461;DHT22;6757;52.258;12.840;2023-02-01T00:17:08;4.50;99.90
7461;DHT22;6757;52.258;12.840;2023-02-01T00:19:35;4.50;99.90
7461;DHT22;6757;52.258;12.840;2023-02-01T00:22:02;4.50;99.90
7461;DHT22;6757;52.258;12.840;2023-02-01T00:24:28;4.50;99.90
7461;DHT22;6757;52.258;12.840;2023-02-01T00:26:57;4.60;99.90
7461;DHT22;6757;52.258;12.840;2023-02-01T00:29:23;4.60;99.90
7461;DHT22;6757;52.258;12.840;2023-02-01T00:31:51;4.60;99.90
7461;DHT22;6757;52.258;12.840;2023-02-01T00:34:19;4.60;99.90
7461;DHT22;6757;52.258;12.840;2023-02-01T00:36:46;4.60;99.90
7461;DHT22;6757;52.258;12.840;2023-02-01T00:39:14;4.60;99.90
7461;DHT22;6757;52.258;12.840;2023-02-01T00:41:41;4.70;99.90
7461;DHT22;6757;52.258;12.840;2023-02-01T00:44:09;4.70;99.90
7461;DHT22;6757;52.258;12.840;2023-02-01T00:46:36;4.70;99.90
7461;DHT22;6757;52.258;12.840;2023-02-01T00:49:03;4.70;99.90
7461;DHT22;6757;52.258;12.840;2023-02-01T00:51:32;4.70;99.90
7461;DHT22;6757;52.258;12.840;2023-02-01T00:53:59;4.70;99.90
7461;DHT22;6757;52.258;12.840;2023-02-01T00:56:26;4.70;99.90
7461;DHT22;6757;52.258;12.840;2023-02-01T00:58:53;4.70;99.90
7461;DHT22;6757;52.258;12.840;2023-02-01T01:01:23;4.70;99.90
7461;DHT22;6757;52.258;12.840;2023-02-01T01:03:53;4.70;99.90
7461;DHT22;6757;52.258;12.840;2023-02-01T01:06:23;4.60;99.90
7461;DHT22;6757;52.258;12.840;2023-02-01T01:08:51;4.60;99.90
7461;DHT22;6757;52.258;12.840;2023-02-01T01:11:22;4.60;99.90
7461;DHT22;6757;52.258;12.840;2023-02-01T01:13:52;4.60;99.90
7461;DHT22;6757;52.258;12.840;2023-02-01T01:16:23;4.60;99.90
7461;DHT22;6757;52.258;12.840;2023-02-01T01:18:52;4.60;99.90
7461;DHT22;6757;52.258;12.840;2023-02-01T01:21:20;4.60;99.90
7461;DHT22;6757;52.258;12.840;2023-02-01T01:23:47;4.50;99.90
7461;DHT22;6757;52.258;12.840;2023-02-01T01:26:16;4.50;99.90
7461;DHT22;6757;52.258;12.840;2023-02-01T01:28:44;4.50;99.90
7461;DHT22;6757;52.258;12.840;2023-02-01T01:31:12;4.50;99.90
7461;DHT22;6757;52.258;12.840;2023-02-01T01:33:41;4.50;99.90
7461;DHT22;6757;52.258;12.840;2023-02-01T01:36:10;4.50;99.90
7461;DHT22;6757;52.258;12.840;2023-02-01T01:38:38;4.40;99.90
7461;DHT22;6757;52.258;12.840;2023-02-01T01:41:06;4.40;99.90
7461;DHT22;6757;52.258;12.840;2023-02-01T01:43:54;4.40;99.90
7461;DHT22;6757;52.258;12.840;2023-02-01T01:46:25;4.40;99.90
7461;DHT22;6757;52.258;12.840;2023-02-01T01:49:02;4.40;99.90
7461;DHT22;6757;52.258;12.840;2023-02-01T01:51:36;4.40;99.90
7461;DHT22;6757;52.258;12.840;2023-02-01T01:54:08;4.40;99.90
7461;DHT22;6757;52.258;12.840;2023-02-01T01:56:39;4.40;99.90
7461;DHT22;6757;52.258;12.840;2023-02-01T01:59:06;4.40;99.90
7461;DHT22;6757;52.258;12.840;2023-02-01T02:01:34;4.40;99.90
7461;DHT22;6757;52.258;12.840;2023-02-01T02:04:02;4.40;99.90
7461;DHT22;6757;52.258;12.840;2023-02-01T02:06:36;4.40;99.90
7461;DHT22;6757;52.258;12.840;2023-02-01T02:09:06;4.40;99.90
7461;DHT22;6757;52.258;12.840;2023-02-01T02:11:33;4.50;99.90
7461;DHT22;6757;52.258;12.840;2023-02-01T02:14:01;4.50;99.90
7461;DHT22;6757;52.258;12.840;2023-02-01T02:16:41;4.50;99.90
7461;DHT22;6757;52.258;12.840;2023-02-01T02:19:32;4.50;99.90
7461;DHT22;6757;52.258;12.840;2023-02-01T02:22:43;4.50;99.90
7461;DHT22;6757;52.258;12.840;2023-02-01T02:25:36;4.50;99.90
7461;DHT22;6757;52.258;12.840;2023-02-01T02:28:37;4.50;99.90
7461;DHT22;6757;52.258;12.840;2023-02-01T02:31:27;4.50;99.90
7461;DHT22;6757;52.258;12.840;2023-02-01T02:34:14;4.50;99.90
7461;DHT22;6757;52.258;12.840;2023-02-01T02:36:54;4.50;99.90
7461;DHT22;6757;52.258;12.840;2023-02-01T02:39:33;4.50;99.90
7461;DHT22;6757;52.258;12.840;2023-02-01T02:42:08;4.50;99.90
7461;DHT22;6757;52.258;12.840;2023-02-01T02:45:00;4.50;99.90
7461;DHT22;6757;52.258;12.840;2023-02-01T02:47:56;4.50;99.90
7461;DHT22;6757;52.258;12.840;2023-02-01T02:50:33;4.60;99.90
7461;DHT22;6757;52.258;12.840;2023-02-01T02:53:21;4.60;99.90
7461;DHT22;6757;52.258;12.840;2023-02-01T02:56:10;4.60;99.90
7461;DHT22;6757;52.258;12.840;2023-02-01T02:58:55;4.50;99.90
7461;DHT22;6757;52.258;12.840;2023-02-01T03:01:40;4.60;99.90
7461;DHT22;6757;52.258;12.840;2023-02-01T03:04:25;4.60;99.90
7461;DHT22;6757;52.258;12.840;2023-02-01T03:06:54;4.60;99.90
7461;DHT22;6757;52.258;12.840;2023-02-01T03:09:27;4.60;99.90
7461;DHT22;6757;52.258;12.840;2023-02-01T03:12:00;4.60;99.90
7461;DHT22;6757;52.258;12.840;2023-02-01T03:14:51;4.60;99.90
7461;DHT22;6757;52.258;12.840;2023-02-01T03:17:25;4.60;99.90
7461;DHT22;6757;52.258;12.840;2023-02-01T03:20:00;4.70;99.90
7461;DHT22;6757;52.258;12.840;2023-02-01T03:22:31;4.70;99.90
7461;DHT22;6757;52.258;12.840;2023-02-01T03:25:02;4.70;99.90
7461;DHT22;6757;52.258;12.840;2023-02-01T03:27:36;4.80;99.90
7461;DHT22;6757;52.258;12.840;2023-02-01T03:30:10;4.80;99.90
7461;DHT22;6757;52.258;12.840;2023-02-01T03:32:44;4.80;99.90
7461;DHT22;6757;52.258;12.840;2023-02-01T03:35:29;4.80;99.90
7461;DHT22;6757;52.258;12.840;2023-02-01T03:38:01;4.90;99.90
7461;DHT22;6757;52.258;12.840;2023-02-01T03:40:33;4.90;99.90
7461;DHT22;6757;52.258;12.840;2023-02-01T03:43:04;4.90;99.90
7461;DHT22;6757;52.258;12.840;2023-02-01T03:45:35;4.90;99.90
7461;DHT22;6757;52.258;12.840;2023-02-01T03:48:05;4.90;99.90
7461;DHT22;6757;52.258;12.840;2023-02-01T03:50:33;4.90;99.90
7461;DHT22;6757;52.258;12.840;2023-02-01T03:53:07;4.90;99.90
7461;DHT22;6757;52.258;12.840;2023-02-01T03:55:35;4.90;99.90
7461;DHT22;6757;52.258;12.840;2023-02-01T03:58:07;4.90;99.90
7461;DHT22;6757;52.258;12.840;2023-02-01T04:00:35;4.90;99.90
7461;DHT22;6757;52.258;12.840;2023-02-01T04:03:04;4.90;99.90
7461;DHT22;6757;52.258;12.840;2023-02-01T04:05:31;4.90;99.90
7461;DHT22;6757;52.258;12.840;2023-02-01T04:07:59;4.90;99.90
7461;DHT22;6757;52.258;12.840;2023-02-01T04:10:28;4.90;99.90
7461;DHT22;6757;52.258;12.840;2023-02-01T04:12:54;5.00;99.90
7461;DHT22;6757;52.258;12.840;2023-02-01T04:15:21;5.00;99.90
7461;DHT22;6757;52.258;12.840;2023-02-01T04:17:48;5.00;99.90
7461;DHT22;6757;52.258;12.840;2023-02-01T04:20:16;5.00;99.90
7461;DHT22;6757;52.258;12.840;2023-02-01T04:22:43;5.00;99.90
7461;DHT22;6757;52.258;12.840;2023-02-01T04:25:10;5.00;99.90
7461;DHT22;6757;52.258;12.840;2023-02-01T04:27:39;5.00;99.90
7461;DHT22;6757;52.258;12.840;2023-02-01T04:30:07;5.00;99.90
7461;DHT22;6757;52.258;12.840;2023-02-01T04:32:35;5.00;99.90
7461;DHT22;6757;52.258;12.840;2023-02-01T04:35:02;5.00;99.90
7461;DHT22;6757;52.258;12.840;2023-02-01T04:37:29;5.10;99.90
7461;DHT22;6757;52.258;12.840;2023-02-01T04:39:56;5.10;99.90
7461;DHT22;6757;52.258;12.840;2023-02-01T04:42:22;5.10;99.90
7461;DHT22;6757;52.258;12.840;2023-02-01T04:44:51;5.10;99.90
7461;DHT22;6757;52.258;12.840;2023-02-01T04:47:17;5.10;99.90
7461;DHT22;6757;52.258;12.840;2023-02-01T04:49:44;5.10;99.90
7461;DHT22;6757;52.258;12.840;2023-02-01T04:52:11;5.10;99.90
7461;DHT22;6757;52.258;12.840;2023-02-01T04:54:38;5.10;99.90
7461;DHT22;6757;52.258;12.840;2023-02-01T04:57:05;5.10;99.90
7461;DHT22;6757;52.258;12.840;2023-02-01T04:59:32;5.10;99.90
7461;DHT22;6757;52.258;12.840;2023-02-01T05:02:00;5.10;99.90
7461;DHT22;6757;52.258;12.840;2023-02-01T05:04:27;5.10;99.90
7461;DHT22;6757;52.258;12.840;2023-02-01T05:06:54;5.10;99.90
7461;DHT22;6757;52.258;12.840;2023-02-01T05:09:21;5.10;99.90
7461;DHT22;6757;52.258;12.840;2023-02-01T05:11:48;5.10;99.90
7461;DHT22;6757;52.258;12.840;2023-02-01T05:14:29;5.10;99.90
7461;DHT22;6757;52.258;12.840;2023-02-01T05:16:56;5.10;99.90
7461;DHT22;6757;52.258;12.840;2023-02-01T05:19:24;5.10;99.90
7461;DHT22;6757;52.258;12.840;2023-02-01T05:21:51;5.20;99.90
7461;DHT22;6757;52.258;12.840;2023-02-01T05:24:18;5.20;99.90
7461;DHT22;6757;52.258;12.840;2023-02-01T05:26:46;5.10;99.90
7461;DHT22;6757;52.258;12.840;2023-02-01T05:29:14;5.10;99.90
7461;DHT22;6757;52.258;12.840;2023-02-01T05:31:44;5.10;99.90
7461;DHT22;6757;52.258;12.840;2023-02-01T05:34:12;5.10;99.90
7461;DHT22;6757;52.258;12.840;2023-02-01T05:36:40;5.10;99.90
7461;DHT22;6757;52.258;12.840;2023-02-01T05:39:07;5.10;99.90
7461;DHT22;6757;52.258;12.840;2023-02-01T05:41:34;5.00;99.90
7461;DHT22;6757;52.258;12.840;2023-02-01T05:44:01;5.00;99.90
7461;DHT22;6757;52.258;12.840;2023-02-01T05:46:28;5.00;99.90
7461;DHT22;6757;52.258;12.840;2023-02-01T05:48:54;5.00;99.90
7461;DHT22;6757;52.258;12.840;2023-02-01T05:51:21;4.90;99.90
7461;DHT22;6757;52.258;12.840;2023-02-01T05:53:49;4.90;99.90
7461;DHT22;6757;52.258;12.840;2023-02-01T05:56:16;4.90;99.90
7461;DHT22;6757;52.258;12.840;2023-02-01T05:58:43;4.90;99.90
7461;DHT22;6757;52.258;12.840;2023-02-01T06:01:10;4.90;99.90
7461;DHT22;6757;52.258;12.840;2023-02-01T06:03:37;4.90;99.90
7461;DHT22;6757;52.258;12.840;2023-02-01T06:06:04;4.90;99.90
7461;DHT22;6757;52.258;12.840;2023-02-01T06:08:31;4.90;99.90
7461;DHT22;6757;52.258;12.840;2023-02-01T06:11:00;4.90;99.90
7461;DHT22;6757;52.258;12.840;2023-02-01T06:13:29;4.80;99.90
7461;DHT22;6757;52.258;12.840;2023-02-01T06:15:56;4.80;99.90
7461;DHT22;6757;52.258;12.840;2023-02-01T06:18:23;4.80;99.90
7461;DHT22;6757;52.258;12.840;2023-02-01T06:20:52;4.80;99.90
7461;DHT22;6757;52.258;12.840;2023-02-01T06:23:20;4.70;99.90
7461;DHT22;6757;52.258;12.840;2023-02-01T06:25:50;4.70;99.90
7461;DHT22;6757;52.258;12.840;2023-02-01T06:28:18;4.70;99.90
7461;DHT22;6757;52.258;12.840;2023-02-01T06:30:45;4.70;99.90
7461;DHT22;6757;52.258;12.840;2023-02-01T06:33:13;4.70;99.90
7461;DHT22;6757;52.258;12.840;2023-02-01T06:35:41;4.70;99.90
7461;DHT22;6757;52.258;12.840;2023-02-01T06:38:09;4.70;99.90
7461;DHT22;6757;52.258;12.840;2023-02-01T06:40:36;4.70;99.90
7461;DHT22;6757;52.258;12.840;2023-02-01T06:45:40;4.80;99.90
7461;DHT22;6757;52.258;12.840;2023-02-01T06:48:07;4.80;99.90
7461;DHT22;6757;52.258;12.840;2023-02-01T06:50:34;4.80;99.90
7461;DHT22;6757;52.258;12.840;2023-02-01T06:53:01;4.80;99.90
7461;DHT22;6757;52.258;12.840;2023-02-01T06:55:28;4.80;99.90
7461;DHT22;6757;52.258;12.840;2023-02-01T06:57:55;4.80;99.90
7461;DHT22;6757;52.258;12.840;2023-02-01T07:00:23;4.80;99.90
7461;DHT22;6757;52.258;12.840;2023-02-01T07:02:51;4.80;99.90
7461;DHT22;6757;52.258;12.840;2023-02-01T07:05:18;4.80;99.90
7461;DHT22;6757;52.258;12.840;2023-02-01T07:07:45;4.80;99.90
7461;DHT22;6757;52.258;12.840;2023-02-01T07:10:12;4.80;99.90
7461;DHT22;6757;52.258;12.840;2023-02-01T07:12:39;4.80;99.90
7461;DHT22;6757;52.258;12.840;2023-02-01T07:15:07;4.80;99.90
7461;DHT22;6757;52.258;12.840;2023-02-01T07:17:34;4.80;99.90
7461;DHT22;6757;52.258;12.840;2023-02-01T07:20:03;4.80;99.90
7461;DHT22;6757;52.258;12.840;2023-02-01T07:22:30;4.80;99.90
7461;DHT22;6757;52.258;12.840;2023-02-01T07:24:57;4.80;99.90
7461;DHT22;6757;52.258;12.840;2023-02-01T07:27:24;4.80;99.90
7461;DHT22;6757;52.258;12.840;2023-02-01T07:29:51;4.70;99.90
7461;DHT22;6757;52.258;12.840;2023-02-01T07:32:18;4.70;99.90
7461;DHT22;6757;52.258;12.840;2023-02-01T07:34:45;4.60;99.90
7461;DHT22;6757;52.258;12.840;2023-02-01T07:37:13;4.50;99.90
7461;DHT22;6757;52.258;12.840;2023-02-01T07:39:40;4.50;99.90
7461;DHT22;6757;52.258;12.840;2023-02-01T07:42:07;4.40;99.90
7461;DHT22;6757;52.258;12.840;2023-02-01T07:44:33;4.30;99.90
7461;DHT22;6757;52.258;12.840;2023-02-01T07:47:00;4.20;99.90
7461;DHT22;6757;52.258;12.840;2023-02-01T07:49:27;4.10;99.90
7461;DHT22;6757;52.258;12.840;2023-02-01T07:51:54;4.10;99.90
7461;DHT22;6757;52.258;12.840;2023-02-01T07:54:22;4.00;99.90
7461;DHT22;6757;52.258;12.840;2023-02-01T07:56:49;3.90;99.90
7461;DHT22;6757;52.258;12.840;2023-02-01T07:59:16;3.90;99.90
7461;DHT22;6757;52.258;12.840;2023-02-01T08:01:43;3.80;99.90
7461;DHT22;6757;52.258;12.840;2023-02-01T08:04:11;3.80;99.90
7461;DHT22;6757;52.258;12.840;2023-02-01T08:06:39;3.70;99.90
7461;DHT22;6757;52.258;12.840;2023-02-01T08:09:07;3.70;99.90
7461;DHT22;6757;52.258;12.840;2023-02-01T08:11:37;3.70;99.90
7461;DHT22;6757;52.258;12.840;2023-02-01T08:14:04;3.60;99.90
7461;DHT22;6757;52.258;12.840;2023-02-01T08:16:32;3.60;99.90
7461;DHT22;6757;52.258;12.840;2023-02-01T08:19:00;3.60;99.90
7461;DHT22;6757;52.258;12.840;2023-02-01T08:21:28;3.60;99.90
7461;DHT22;6757;52.258;12.840;2023-02-01T08:24:03;3.60;99.90
7461;DHT22;6757;52.258;12.840;2023-02-01T08:26:30;3.60;99.90
7461;DHT22;6757;52.258;12.840;2023-02-01T08:29:00;3.50;99.90
7461;DHT22;6757;52.258;12.840;2023-02-01T08:31:30;3.50;99.90
7461;DHT22;6757;52.258;12.840;2023-02-01T08:33:58;3.50;99.90
7461;DHT22;6757;52.258;12.840;2023-02-01T08:36:28;3.50;99.90
7461;DHT22;6757;52.258;12.840;2023-02-01T08:38:56;3.50;99.90
7461;DHT22;6757;52.258;12.840;2023-02-01T08:41:25;3.50;99.90
7461;DHT22;6757;52.258;12.840;2023-02-01T08:43:53;3.50;99.90
7461;DHT22;6757;52.258;12.840;2023-02-01T08:46:22;3.50;99.90
7461;DHT22;6757;52.258;12.840;2023-02-01T08:48:49;3.50;99.90
7461;DHT22;6757;52.258;12.840;2023-02-01T08:51:18;3.50;99.90
7461;DHT22;6757;52.258;12.840;2023-02-01T08:53:46;3.50;99.90
7461;DHT22;6757;52.258;12.840;2023-02-01T08:56:15;3.50;99.90
7461;DHT22;6757;52.258;12.840;2023-02-01T08:58:43;3.50;99.90
7461;DHT22;6757;52.258;12.840;2023-02-01T09:01:13;3.50;99.90
7461;DHT22;6757;52.258;12.840;2023-02-01T09:03:43;3.50;99.90
7461;DHT22;6757;52.258;12.840;2023-02-01T09:06:13;3.50;99.90
7461;DHT22;6757;52.258;12.840;2023-02-01T09:08:42;3.50;99.90
7461;DHT22;6757;52.258;12.840;2023-02-01T09:11:12;3.50;99.90
7461;DHT22;6757;52.258;12.840;2023-02-01T09:13:40;3.50;99.90
7461;DHT22;6757;52.258;12.840;2023-02-01T09:16:08;3.50;99.90
7461;DHT22;6757;52.258;12.840;2023-02-01T09:18:35;3.50;99.90
7461;DHT22;6757;52.258;12.840;2023-02-01T09:21:05;3.50;99.90
7461;DHT22;6757;52.258;12.840;2023-02-01T09:23:33;3.50;99.90
7461;DHT22;6757;52.258;12.840;2023-02-01T09:26:00;3.50;99.90
7461;DHT22;6757;52.258;12.840;2023-02-01T09:28:28;3.50;99.90
7461;DHT22;6757;52.258;12.840;2023-02-01T09:30:56;3.50;99.90
7461;DHT22;6757;52.258;12.840;2023-02-01T09:33:23;3.50;99.90
7461;DHT22;6757;52.258;12.840;2023-02-01T09:35:55;3.50;99.90
7461;DHT22;6757;52.258;12.840;2023-02-01T09:38:24;3.50;99.90
7461;DHT22;6757;52.258;12.840;2023-02-01T09:40:53;3.50;99.90
7461;DHT22;6757;52.258;12.840;2023-02-01T09:43:37;3.40;99.90
7461;DHT22;6757;52.258;12.840;2023-02-01T09:46:21;3.40;99.90
7461;DHT22;6757;52.258;12.840;2023-02-01T09:48:53;3.40;99.90
7461;DHT22;6757;52.258;12.840;2023-02-01T09:51:29;3.40;99.90
7461;DHT22;6757;52.258;12.840;2023-02-01T09:54:02;3.30;99.90
7461;DHT22;6757;52.258;12.840;2023-02-01T09:56:35;3.30;99.90
7461;DHT22;6757;52.258;12.840;2023-02-01T09:59:10;3.30;99.90
7461;DHT22;6757;52.258;12.840;2023-02-01T10:01:45;3.30;99.90
7461;DHT22;6757;52.258;12.840;2023-02-01T10:04:13;3.30;99.90
7461;DHT22;6757;52.258;12.840;2023-02-01T10:06:51;3.30;99.90
7461;DHT22;6757;52.258;12.840;2023-02-01T10:09:44;3.30;99.90
7461;DHT22;6757;52.258;12.840;2023-02-01T10:12:54;3.40;99.90
7461;DHT22;6757;52.258;12.840;2023-02-01T10:15:45;3.40;99.90
7461;DHT22;6757;52.258;12.840;2023-02-01T10:18:36;3.50;99.90
7461;DHT22;6757;52.258;12.840;2023-02-01T10:21:15;3.60;99.90
7461;DHT22;6757;52.258;12.840;2023-02-01T10:24:06;3.60;99.90
7461;DHT22;6757;52.258;12.840;2023-02-01T10:26:44;3.70;99.90
7461;DHT22;6757;52.258;12.840;2023-02-01T10:29:16;3.80;99.90
7461;DHT22;6757;52.258;12.840;2023-02-01T10:31:46;3.80;99.90
7461;DHT22;6757;52.258;12.840;2023-02-01T10:34:18;3.90;99.90
7461;DHT22;6757;52.258;12.840;2023-02-01T10:36:53;4.00;99.90
7461;DHT22;6757;52.258;12.840;2023-02-01T10:39:22;4.10;99.90
7461;DHT22;6757;52.258;12.840;2023-02-01T10:41:51;4.20;99.90
7461;DHT22;6757;52.258;12.840;2023-02-01T10:44:24;4.20;99.90
7461;DHT22;6757;52.258;12.840;2023-02-01T10:46:52;4.30;99.90
7461;DHT22;6757;52.258;12.840;2023-02-01T10:49:24;4.40;99.90
7461;DHT22;6757;52.258;12.840;2023-02-01T10:51:58;4.40;99.90
7461;DHT22;6757;52.258;12.840;2023-02-01T10:54:33;4.50;99.90
7461;DHT22;6757;52.258;12.840;2023-02-01T10:57:02;4.60;99.90
7461;DHT22;6757;52.258;12.840;2023-02-01T10:59:29;4.70;99.90
7461;DHT22;6757;52.258;12.840;2023-02-01T11:01:59;4.80;99.90
7461;DHT22;6757;52.258;12.840;2023-02-01T11:04:37;4.80;99.90
7461;DHT22;6757;52.258;12.840;2023-02-01T11:07:07;4.90;99.90
7461;DHT22;6757;52.258;12.840;2023-02-01T11:09:40;4.90;99.90
7461;DHT22;6757;52.258;12.840;2023-02-01T11:12:25;5.10;99.90
7461;DHT22;6757;52.258;12.840;2023-02-01T11:14:59;5.10;99.90
7461;DHT22;6757;52.258;12.840;2023-02-01T11:17:33;5.20;99.90
7461;DHT22;6757;52.258;12.840;2023-02-01T11:20:03;5.20;99.90
7461;DHT22;6757;52.258;12.840;2023-02-01T11:22:33;5.20;99.90
7461;DHT22;6757;52.258;12.840;2023-02-01T11:25:01;5.20;99.90
7461;DHT22;6757;52.258;12.840;2023-02-01T11:27:37;5.20;99.90
7461;DHT22;6757;52.258;12.840;2023-02-01T11:30:05;5.20;99.90
7461;DHT22;6757;52.258;12.840;2023-02-01T11:32:33;5.20;99.90
7461;DHT22;6757;52.258;12.840;2023-02-01T11:35:02;5.20;99.90
7461;DHT22;6757;52.258;12.840;2023-02-01T11:37:32;5.20;99.90
7461;DHT22;6757;52.258;12.840;2023-02-01T11:40:08;5.20;99.90
7461;DHT22;6757;52.258;12.840;2023-02-01T11:42:56;5.20;99.90
7461;DHT22;6757;52.258;12.840;2023-02-01T11:45:28;5.20;99.90
7461;DHT22;6757;52.258;12.840;2023-02-01T11:47:57;5.30;99.90
7461;DHT22;6757;52.258;12.840;2023-02-01T11:50:30;5.30;99.90
7461;DHT22;6757;52.258;12.840;2023-02-01T11:53:14;5.30;99.90
7461;DHT22;6757;52.258;12.840;2023-02-01T11:56:00;5.30;99.90
7461;DHT22;6757;52.258;12.840;2023-02-01T11:58:47;5.40;99.90
7461;DHT22;6757;52.258;12.840;2023-02-01T12:01:36;5.40;99.90
7461;DHT22;6757;52.258;12.840;2023-02-01T12:07:38;5.50;99.90
7461;DHT22;6757;52.258;12.840;2023-02-01T12:10:25;5.50;99.90
7461;DHT22;6757;52.258;12.840;2023-02-01T12:13:08;5.50;99.90
7461;DHT22;6757;52.258;12.840;2023-02-01T12:15:51;5.50;99.90
7461;DHT22;6757;52.258;12.840;2023-02-01T12:21:52;5.60;99.90
7461;DHT22;6757;52.258;12.840;2023-02-01T12:24:46;5.60;99.90
7461;DHT22;6757;52.258;12.840;2023-02-01T12:27:59;5.60;99.90
7461;DHT22;6757;52.258;12.840;2023-02-01T12:34:19;5.80;99.90
7461;DHT22;6757;52.258;12.840;2023-02-01T12:36:58;5.90;99.90
7461;DHT22;6757;52.258;12.840;2023-02-01T12:39:31;6.00;99.90
7461;DHT22;6757;52.258;12.840;2023-02-01T12:42:03;6.10;99.90
7461;DHT22;6757;52.258;12.840;2023-02-01T12:44:42;6.30;99.90
7461;DHT22;6757;52.258;12.840;2023-02-01T12:47:19;6.30;99.90
7461;DHT22;6757;52.258;12.840;2023-02-01T12:49:53;6.40;99.90
7461;DHT22;6757;52.258;12.840;2023-02-01T12:52:28;6.40;99.90
7461;DHT22;6757;52.258;12.840;2023-02-01T12:55:01;6.50;99.90
7461;DHT22;6757;52.258;12.840;2023-02-01T12:57:33;6.50;99.90
7461;DHT22;6757;52.258;12.840;2023-02-01T13:00:12;6.50;99.90
7461;DHT22;6757;52.258;12.840;2023-02-01T13:02:54;6.50;99.90
7461;DHT22;6757;52.258;12.840;2023-02-01T13:05:37;6.40;99.90
7461;DHT22;6757;52.258;12.840;2023-02-01T13:08:14;6.40;99.90
7461;DHT22;6757;52.258;12.840;2023-02-01T13:10:45;6.40;99.90
7461;DHT22;6757;52.258;12.840;2023-02-01T13:13:19;6.30;99.90
7461;DHT22;6757;52.258;12.840;2023-02-01T13:15:54;6.30;99.90
7461;DHT22;6757;52.258;12.840;2023-02-01T13:18:28;6.30;99.90
7461;DHT22;6757;52.258;12.840;2023-02-01T13:21:04;6.30;99.90
7461;DHT22;6757;52.258;12.840;2023-02-01T13:23:35;6.30;99.90
7461;DHT22;6757;52.258;12.840;2023-02-01T13:26:03;6.20;99.90
7461;DHT22;6757;52.258;12.840;2023-02-01T13:28:34;6.20;99.90
7461;DHT22;6757;52.258;12.840;2023-02-01T13:31:28;6.20;99.90
7461;DHT22;6757;52.258;12.840;2023-02-01T13:40:53;6.20;99.90
7461;DHT22;6757;52.258;12.840;2023-02-01T13:43:31;6.10;99.90
7461;DHT22;6757;52.258;12.840;2023-02-01T13:46:04;6.10;99.90
7461;DHT22;6757;52.258;12.840;2023-02-01T13:48:38;6.10;99.90
7461;DHT22;6757;52.258;12.840;2023-02-01T13:51:08;6.10;99.90
7461;DHT22;6757;52.258;12.840;2023-02-01T13:53:37;6.10;99.90
7461;DHT22;6757;52.258;12.840;2023-02-01T13:56:13;6.10;99.90
7461;DHT22;6757;52.258;12.840;2023-02-01T13:58:42;6.10;99.90
7461;DHT22;6757;52.258;12.840;2023-02-01T14:01:43;6.10;99.90
7461;DHT22;6757;52.258;12.840;2023-02-01T14:04:45;6.10;99.90
7461;DHT22;6757;52.258;12.840;2023-02-01T14:07:19;6.10;99.90
7461;DHT22;6757;52.258;12.840;2023-02-01T14:09:48;6.20;99.90
7461;DHT22;6757;52.258;12.840;2023-02-01T14:12:50;6.20;99.90
7461;DHT22;6757;52.258;12.840;2023-02-01T14:15:23;6.20;99.90
7461;DHT22;6757;52.258;12.840;2023-02-01T14:17:51;6.20;99.90
7461;DHT22;6757;52.258;12.840;2023-02-01T14:20:48;6.20;99.90
7461;DHT22;6757;52.258;12.840;2023-02-01T14:23:28;6.20;99.90
7461;DHT22;6757;52.258;12.840;2023-02-01T14:26:11;6.20;99.90
7461;DHT22;6757;52.258;12.840;2023-02-01T14:28:51;6.20;99.90
7461;DHT22;6757;52.258;12.840;2023-02-01T14:31:46;6.20;99.90
7461;DHT22;6757;52.258;12.840;2023-02-01T14:34:20;6.20;99.90
7461;DHT22;6757;52.258;12.840;2023-02-01T14:36:56;6.20;99.90
7461;DHT22;6757;52.258;12.840;2023-02-01T14:39:31;6.10;99.90
7461;DHT22;6757;52.258;12.840;2023-02-01T14:42:05;6.00;99.90
7461;DHT22;6757;52.258;12.840;2023-02-01T14:44:40;5.80;99.90
7461;DHT22;6757;52.258;12.840;2023-02-01T14:47:27;5.70;99.90
7461;DHT22;6757;52.258;12.840;2023-02-01T14:50:25;5.50;99.90
7461;DHT22;6757;52.258;12.840;2023-02-01T14:53:17;5.30;99.90
7461;DHT22;6757;52.258;12.840;2023-02-01T14:55:49;5.20;99.90
7461;DHT22;6757;52.258;12.840;2023-02-01T14:58:31;5.00;99.90
7461;DHT22;6757;52.258;12.840;2023-02-01T15:01:05;4.90;99.90
7461;DHT22;6757;52.258;12.840;2023-02-01T15:03:50;4.80;99.90
7461;DHT22;6757;52.258;12.840;2023-02-01T15:06:36;4.70;99.90
7461;DHT22;6757;52.258;12.840;2023-02-01T15:09:11;4.60;99.90
7461;DHT22;6757;52.258;12.840;2023-02-01T15:11:58;4.90;99.90
7461;DHT22;6757;52.258;12.840;2023-02-01T15:14:29;4.50;99.90
7461;DHT22;6757;52.258;12.840;2023-02-01T15:16:57;4.40;99.90
7461;DHT22;6757;52.258;12.840;2023-02-01T15:19:26;4.40;99.90
7461;DHT22;6757;52.258;12.840;2023-02-01T15:21:57;4.40;99.90
7461;DHT22;6757;52.258;12.840;2023-02-01T15:24:27;4.40;99.90
7461;DHT22;6757;52.258;12.840;2023-02-01T15:27:01;4.40;99.90
7461;DHT22;6757;52.258;12.840;2023-02-01T15:29:31;4.40;99.90
7461;DHT22;6757;52.258;12.840;2023-02-01T15:31:58;4.40;99.90
7461;DHT22;6757;52.258;12.840;2023-02-01T15:34:44;4.40;99.90
7461;DHT22;6757;52.258;12.840;2023-02-01T15:37:13;4.30;99.90
7461;DHT22;6757;52.258;12.840;2023-02-01T15:40:14;4.30;99.90
7461;DHT22;6757;52.258;12.840;2023-02-01T15:42:51;4.30;99.90
7461;DHT22;6757;52.258;12.840;2023-02-01T15:45:22;4.30;99.90
7461;DHT22;6757;52.258;12.840;2023-02-01T15:47:54;4.30;99.90
7461;DHT22;6757;52.258;12.840;2023-02-01T15:50:21;4.40;99.90
7461;DHT22;6757;52.258;12.840;2023-02-01T15:52:51;4.40;99.90
7461;DHT22;6757;52.258;12.840;2023-02-01T15:55:23;4.40;99.90
7461;DHT22;6757;52.258;12.840;2023-02-01T15:57:51;4.40;99.90
7461;DHT22;6757;52.258;12.840;2023-02-01T16:00:22;4.40;99.90
7461;DHT22;6757;52.258;12.840;2023-02-01T16:02:54;4.40;99.90
7461;DHT22;6757;52.258;12.840;2023-02-01T16:05:30;4.30;99.90
7461;DHT22;6757;52.258;12.840;2023-02-01T16:08:01;4.20;99.90
7461;DHT22;6757;52.258;12.840;2023-02-01T16:10:31;4.10;99.90
7461;DHT22;6757;52.258;12.840;2023-02-01T16:12:58;3.90;99.90
7461;DHT22;6757;52.258;12.840;2023-02-01T16:15:27;3.80;99.90
7461;DHT22;6757;52.258;12.840;2023-02-01T16:17:55;3.70;99.90
7461;DHT22;6757;52.258;12.840;2023-02-01T16:20:22;3.60;99.90
7461;DHT22;6757;52.258;12.840;2023-02-01T16:22:48;3.50;99.90
7461;DHT22;6757;52.258;12.840;2023-02-01T16:25:15;3.40;99.90
7461;DHT22;6757;52.258;12.840;2023-02-01T16:27:42;3.30;99.90
7461;DHT22;6757;52.258;12.840;2023-02-01T16:30:10;3.30;99.90
7461;DHT22;6757;52.258;12.840;2023-02-01T16:32:38;3.20;99.90
7461;DHT22;6757;52.258;12.840;2023-02-01T16:35:12;3.20;99.90
7461;DHT22;6757;52.258;12.840;2023-02-01T16:37:41;3.10;99.90
7461;DHT22;6757;52.258;12.840;2023-02-01T16:40:13;3.10;99.90
7461;DHT22;6757;52.258;12.840;2023-02-01T16:42:40;3.10;99.90
7461;DHT22;6757;52.258;12.840;2023-02-01T16:45:08;3.10;99.90
7461;DHT22;6757;52.258;12.840;2023-02-01T16:47:39;3.10;99.90
7461;DHT22;6757;52.258;12.840;2023-02-01T16:50:16;3.10;99.90
7461;DHT22;6757;52.258;12.840;2023-02-01T16:52:44;3.60;99.90
7461;DHT22;6757;52.258;12.840;2023-02-01T16:55:13;3.10;99.90
7461;DHT22;6757;52.258;12.840;2023-02-01T16:57:40;3.20;99.90